Time;durP1;ratioP1;P1;durP2;ratioP2;P2;SDS_P1;SDS_P2;PMS_P1;PMS_P2;Temp;Humidity;BMP_temperature;BMP_pressure;BME280_temperature;BME280_humidity;BME280_pressure;Samples;Min_cycle;Max_cycle;Signal;HPM_P1;HPM_P2
2023/08/07 00:02:44;;;;;;;;;;;;;;;21.50;48.23;95331.25;10470929;28;1918;-70
2023/08/07 00:07:44;;;;;;;;;;;;;;;21.51;47.83;95321.47;10440881;28;1955;-70
2023/08/07 00:12:44;;;;;;;;;;;;;;;21.49;47.83;95331.53;10444644;28;2010;-70
2023/08/07 00:17:44;;;;;;;;;;;;;;;21.48;48.04;95338.66;10480626;28;1842;-70
2023/08/07 00:22:45;;;;;;;;;;;;;;;21.48;48.08;95327.31;10441309;28;1886;-72
2023/08/07 00:27:45;;;;;;;;;;;;;;;21.46;47.57;95330.25;10434095;28;2147;-69
2023/08/07 00:32:45;;;;;;;;;;;;;;;21.45;47.72;95341.84;10443324;28;2170;-70
2023/08/07 00:37:46;;;;;;;;;;;;;;;21.46;47.73;95353.19;10437595;28;2095;-70
2023/08/07 00:42:46;;;;;;;;;;;;;;;21.44;47.66;95347.44;10439654;28;4496;-70
2023/08/07 00:47:46;;;;;;;;;;;;;;;21.43;47.66;95344.00;10460193;28;2387;-70
2023/08/07 00:52:46;;;;;;;;;;;;;;;21.41;47.72;95340.88;10451523;28;4244;-70
2023/08/07 00:57:47;;;;;;;;;;;;;;;21.42;47.82;95349.56;10451158;28;2031;-69
2023/08/07 01:02:50;;;;;;;;;;;;;;;21.40;47.84;95335.88;10448380;28;2271;-69
2023/08/07 01:07:54;;;;;;;;;;;;;;;21.41;47.68;95340.09;10449435;28;1879;-69
2023/08/07 01:12:57;;;;;;;;;;;;;;;21.40;47.54;95364.91;10450879;28;2105;-69
2023/08/07 01:17:58;;;;;;;;;;;;;;;21.38;47.83;95346.72;10457920;28;1891;-68
2023/08/07 01:22:58;;;;;;;;;;;;;;;21.37;48.00;95347.78;10452878;28;1969;-68
2023/08/07 01:28:05;;;;;;;;;;;;;;;21.37;47.96;95358.34;10457865;28;1895;-68
2023/08/07 01:33:14;;;;;;;;;;;;;;;21.37;47.67;95357.56;10447754;28;2066;-68
2023/08/07 01:38:14;;;;;;;;;;;;;;;21.37;47.92;95360.22;10447576;28;2131;-69
2023/08/07 01:43:14;;;;;;;;;;;;;;;21.36;47.81;95371.81;10464692;28;4561;-68
2023/08/07 01:48:14;;;;;;;;;;;;;;;21.35;47.95;95370.25;10455791;28;1862;-69
2023/08/07 01:53:15;;;;;;;;;;;;;;;21.34;47.90;95361.56;10460075;28;1906;-69
2023/08/07 01:58:15;;;;;;;;;;;;;;;21.34;47.71;95369.47;10444141;28;2289;-68
2023/08/07 02:03:15;;;;;;;;;;;;;;;21.33;47.54;95367.88;10458463;28;1940;-69
2023/08/07 02:08:15;;;;;;;;;;;;;;;21.32;47.58;95376.09;10445205;28;1962;-69
2023/08/07 02:13:16;;;;;;;;;;;;;;;21.32;47.97;95382.16;10446495;28;2147;-69
2023/08/07 02:18:16;;;;;;;;;;;;;;;21.31;47.85;95383.22;10450751;28;1834;-69
2023/08/07 02:23:16;;;;;;;;;;;;;;;21.31;48.05;95388.50;10446239;28;1822;-69
2023/08/07 02:28:17;;;;;;;;;;;;;;;21.30;47.78;95394.84;10451432;28;1918;-68
2023/08/07 02:33:17;;;;;;;;;;;;;;;21.30;48.04;95400.13;10450544;28;2380;-68
2023/08/07 02:38:17;;;;;;;;;;;;;;;21.29;47.86;95403.81;10444678;28;2338;-69
2023/08/07 02:43:17;;;;;;;;;;;;;;;21.29;47.90;95405.69;10451407;28;1946;-68
2023/08/07 02:48:18;;;;;;;;;;;;;;;21.29;47.98;95408.31;10446956;28;1901;-68
2023/08/07 02:53:18;;;;;;;;;;;;;;;21.27;47.85;95407.81;10455704;28;1981;-68
2023/08/07 02:58:18;;;;;;;;;;;;;;;21.26;47.84;95400.97;10442401;28;2069;-68
2023/08/07 03:03:18;;;;;;;;;;;;;;;21.25;47.94;95402.03;10447684;28;1870;-69
2023/08/07 03:08:19;;;;;;;;;;;;;;;21.25;47.88;95412.56;10448026;28;1898;-68
2023/08/07 03:13:19;;;;;;;;;;;;;;;21.24;47.76;95405.75;10452502;28;2136;-69
2023/08/07 03:18:19;;;;;;;;;;;;;;;21.23;47.64;95412.84;10452631;28;1995;-69
2023/08/07 03:23:20;;;;;;;;;;;;;;;21.22;47.44;95398.13;10478240;28;2083;-69
2023/08/07 03:28:20;;;;;;;;;;;;;;;21.23;47.37;95407.59;10449674;28;1898;-69
2023/08/07 03:33:20;;;;;;;;;;;;;;;21.21;47.77;95415.00;10446482;28;2402;-69
2023/08/07 03:38:20;;;;;;;;;;;;;;;21.20;47.78;95421.34;10441802;28;2017;-69
2023/08/07 03:43:21;;;;;;;;;;;;;;;21.21;47.60;95419.47;10444792;28;4497;-69
2023/08/07 03:48:21;;;;;;;;;;;;;;;21.19;47.60;95425.03;10464759;28;1878;-68
2023/08/07 03:53:21;;;;;;;;;;;;;;;21.19;47.62;95440.06;10446796;28;2189;-69
2023/08/07 03:58:21;;;;;;;;;;;;;;;21.19;47.87;95429.53;10441004;28;1884;-68
2023/08/07 04:03:22;;;;;;;;;;;;;;;21.18;47.63;95441.16;10442242;28;2119;-68
2023/08/07 04:08:22;;;;;;;;;;;;;;;21.17;47.18;95442.19;10447861;28;1941;-69
2023/08/07 04:13:22;;;;;;;;;;;;;;;21.16;47.43;95430.91;10468371;28;1972;-69
2023/08/07 04:18:23;;;;;;;;;;;;;;;21.16;47.33;95435.38;10446106;28;1874;-69
2023/08/07 04:23:23;;;;;;;;;;;;;;;21.14;47.21;95453.31;10441106;28;2074;-69
2023/08/07 04:28:23;;;;;;;;;;;;;;;21.14;47.21;95451.50;10444515;28;1962;-68
2023/08/07 04:33:23;;;;;;;;;;;;;;;21.14;47.42;95458.59;10445031;28;2263;-68
2023/08/07 04:38:24;;;;;;;;;;;;;;;21.13;47.44;95464.94;10443774;28;1881;-68
2023/08/07 04:43:24;;;;;;;;;;;;;;;21.13;47.04;95467.56;10445123;28;4562;-69
2023/08/07 04:48:25;;;;;;;;;;;;;;;21.12;47.55;95476.56;10450837;28;1886;-68
2023/08/07 04:53:25;;;;;;;;;;;;;;;21.12;47.51;95473.91;10441767;28;1957;-69
2023/08/07 04:58:25;;;;;;;;;;;;;;;21.11;47.46;95486.31;10442318;28;1987;-68
2023/08/07 05:03:30;;;;;;;;;;;;;;;21.10;47.11;95476.06;10448801;28;1889;-68
2023/08/07 05:08:30;;;;;;;;;;;;;;;21.10;47.45;95478.69;10442506;28;1917;-68
2023/08/07 05:13:31;;;;;;;;;;;;;;;21.08;47.18;95480.81;10440697;28;2049;-69
2023/08/07 05:18:31;;;;;;;;;;;;;;;21.08;47.31;95486.09;10442676;28;2069;-69
2023/08/07 05:23:31;;;;;;;;;;;;;;;21.07;47.35;95482.66;10444895;28;2206;-69
2023/08/07 05:28:32;;;;;;;;;;;;;;;21.05;47.03;95493.50;10436909;28;1937;-69
2023/08/07 05:33:32;;;;;;;;;;;;;;;21.06;47.07;95491.66;10449404;28;1906;-69
2023/08/07 05:38:32;;;;;;;;;;;;;;;21.05;46.96;95496.13;10447084;28;1970;-69
2023/08/07 05:43:32;;;;;;;;;;;;;;;21.05;47.50;95511.16;10449008;28;4649;-69
2023/08/07 05:48:33;;;;;;;;;;;;;;;21.03;46.98;95514.06;10458683;28;1897;-68
2023/08/07 05:53:34;;;;;;;;;;;;;;;21.03;47.14;95529.88;10456559;28;2005;-68
2023/08/07 05:58:34;;;;;;;;;;;;;;;21.02;46.99;95520.41;10445835;28;2141;-68
2023/08/07 06:03:35;;;;;;;;;;;;;;;21.01;46.77;95524.09;10450239;28;2143;-68
2023/08/07 06:08:35;;;;;;;;;;;;;;;21.01;46.99;95537.25;10441259;28;1873;-69
2023/08/07 06:13:35;;;;;;;;;;;;;;;21.01;46.91;95541.75;10468067;28;1971;-66
2023/08/07 06:18:36;;;;;;;;;;;;;;;21.00;47.18;95540.94;10442168;28;1901;-64
2023/08/07 06:23:36;;;;;;;;;;;;;;;20.99;46.90;95542.03;10458715;28;2311;-63
2023/08/07 06:28:36;;;;;;;;;;;;;;;20.99;46.87;95563.09;10447404;28;1899;-68
2023/08/07 06:33:37;;;;;;;;;;;;;;;20.99;47.17;95541.22;10439028;28;1977;-62
2023/08/07 06:38:37;;;;;;;;;;;;;;;20.98;47.21;95543.06;10450883;28;1867;-62
2023/08/07 06:43:38;;;;;;;;;;;;;;;20.97;46.90;95552.06;10442895;28;1857;-65
2023/08/07 06:48:38;;;;;;;;;;;;;;;20.99;47.32;95543.88;10448489;28;1870;-68
2023/08/07 06:53:38;;;;;;;;;;;;;;;20.97;47.46;95549.44;10472985;28;1914;-67
2023/08/07 06:58:39;;;;;;;;;;;;;;;20.96;47.10;95554.97;10442838;28;1809;-68
2023/08/07 07:03:39;;;;;;;;;;;;;;;20.98;47.24;95561.53;10449816;28;2132;-68
2023/08/07 07:08:39;;;;;;;;;;;;;;;20.97;47.20;95559.97;10443146;28;1873;-68
2023/08/07 07:13:41;;;;;;;;;;;;;;;20.96;47.51;95573.41;10444453;28;1918;-67
2023/08/07 07:18:41;;;;;;;;;;;;;;;20.97;47.31;95567.06;10441893;28;2395;-67
2023/08/07 07:23:42;;;;;;;;;;;;;;;20.96;47.22;95589.22;10448852;28;1934;-68
2023/08/07 07:28:42;;;;;;;;;;;;;;;20.96;47.21;95587.38;10443258;28;1922;-67
2023/08/07 07:33:42;;;;;;;;;;;;;;;20.95;47.24;95604.25;10447587;28;2033;-68
2023/08/07 07:38:43;;;;;;;;;;;;;;;20.96;47.38;95592.63;10448281;28;1864;-67
2023/08/07 07:43:43;;;;;;;;;;;;;;;20.96;47.47;95605.81;10441144;28;4816;-68
2023/08/07 07:48:43;;;;;;;;;;;;;;;20.95;47.50;95604.25;10442232;28;1933;-68
2023/08/07 07:53:43;;;;;;;;;;;;;;;20.95;47.38;95612.16;10440153;28;2012;-67
2023/08/07 07:58:44;;;;;;;;;;;;;;;20.96;47.03;95623.47;10442199;28;2040;-66
2023/08/07 08:03:45;;;;;;;;;;;;;;;20.94;47.21;95626.38;10440890;28;1908;-67
2023/08/07 08:08:45;;;;;;;;;;;;;;;20.94;47.44;95625.59;10441021;28;1836;-66
2023/08/07 08:13:45;;;;;;;;;;;;;;;20.93;47.14;95627.47;10437784;28;2173;-69
2023/08/07 08:18:46;;;;;;;;;;;;;;;20.91;47.36;95636.72;10443252;28;1911;-67
2023/08/07 08:23:46;;;;;;;;;;;;;;;20.92;47.35;95646.16;10438736;28;1988;-67
2023/08/07 08:28:46;;;;;;;;;;;;;;;20.91;46.89;95650.66;10445872;28;2002;-67
2023/08/07 08:33:46;;;;;;;;;;;;;;;20.91;47.37;95648.03;10445007;28;1950;-67
2023/08/07 08:38:48;;;;;;;;;;;;;;;20.90;47.18;95650.94;10441044;28;1874;-67
2023/08/07 08:43:48;;;;;;;;;;;;;;;20.89;47.03;95654.66;10441350;28;1921;-67
2023/08/07 08:48:50;;;;;;;;;;;;;;;20.90;47.25;95658.84;10443042;28;1885;-67
2023/08/07 08:53:51;;;;;;;;;;;;;;;20.88;47.46;95674.94;10435955;28;1890;-67
2023/08/07 08:58:51;;;;;;;;;;;;;;;20.89;47.15;95673.88;10461124;28;1866;-67
2023/08/07 09:03:53;;;;;;;;;;;;;;;20.88;47.24;95679.41;10439423;28;1982;-67
2023/08/07 09:08:53;;;;;;;;;;;;;;;20.88;47.38;95688.09;10446371;28;2015;-67
2023/08/07 09:13:53;;;;;;;;;;;;;;;20.87;47.20;95683.91;10450316;28;2476;-67
2023/08/07 09:18:55;;;;;;;;;;;;;;;20.88;47.14;95682.84;10440625;28;1925;-67
2023/08/07 09:23:55;;;;;;;;;;;;;;;20.89;47.23;95691.53;10472027;28;1877;-66
2023/08/07 09:28:55;;;;;;;;;;;;;;;20.89;47.34;95692.31;10447783;28;1908;-67
2023/08/07 09:34:00;;;;;;;;;;;;;;;20.88;47.19;95680.19;10476311;28;1930;-67
2023/08/07 09:39:01;;;;;;;;;;;;;;;20.88;47.21;95690.72;10445404;28;1869;-67
2023/08/07 09:44:09;;;;;;;;;;;;;;;20.91;47.17;95678.88;10442167;28;4538;-67
2023/08/07 09:49:09;;;;;;;;;;;;;;;20.90;47.10;95678.06;10447381;28;1985;-66
2023/08/07 09:54:09;;;;;;;;;;;;;;;20.90;47.39;95687.81;10446888;28;1931;-67
2023/08/07 09:59:11;;;;;;;;;;;;;;;20.90;47.29;95677.28;10449308;28;2009;-66
2023/08/07 10:04:15;;;;;;;;;;;;;;;20.91;46.81;95674.38;10439933;28;2005;-66
2023/08/07 10:09:16;;;;;;;;;;;;;;;20.90;46.96;95674.63;10454666;28;2350;-66
2023/08/07 10:14:16;;;;;;;;;;;;;;;20.91;47.24;95677.03;10443201;28;1928;-66
2023/08/07 10:19:17;;;;;;;;;;;;;;;20.91;47.12;95676.22;10445920;28;1877;-64
2023/08/07 10:24:17;;;;;;;;;;;;;;;20.92;47.17;95683.84;10443548;28;1799;-67
2023/08/07 10:29:17;;;;;;;;;;;;;;;20.95;47.57;95664.88;10439259;28;1997;-69
2023/08/07 10:34:17;;;;;;;;;;;;;;;20.96;48.85;95679.59;10441601;28;1952;-67
2023/08/07 10:39:18;;;;;;;;;;;;;;;20.99;49.74;95662.44;10447796;28;2105;-68
2023/08/07 10:44:21;;;;;;;;;;;;;;;21.04;49.73;95671.13;10452041;28;4604;-67
2023/08/07 10:49:37;;;;;;;;;;;;;;;21.04;48.57;95671.13;10444482;28;1977;-67
2023/08/07 10:54:44;;;;;;;;;;;;;;;21.04;48.81;95644.75;10443579;28;1951;-67
2023/08/07 10:59:48;;;;;;;;;;;;;;;21.03;48.65;95648.47;10447263;28;1846;-67
2023/08/07 11:04:49;;;;;;;;;;;;;;;21.04;49.20;95654.53;10436919;28;2030;-65
2023/08/07 11:09:50;;;;;;;;;;;;;;;21.06;49.24;95644.50;10444312;28;1961;-66
2023/08/07 11:14:52;;;;;;;;;;;;;;;21.07;49.60;95643.44;10436125;28;1945;-64
2023/08/07 11:19:53;;;;;;;;;;;;;;;21.08;49.42;95651.03;10439243;28;1863;-62
2023/08/07 11:24:53;;;;;;;;;;;;;;;21.06;49.26;95647.91;10438679;28;1982;-68
2023/08/07 11:29:53;;;;;;;;;;;;;;;21.08;48.77;95646.84;10443151;28;2053;-67
2023/08/07 11:34:54;;;;;;;;;;;;;;;21.09;49.04;95662.38;10466510;28;1934;-68
2023/08/07 11:39:59;;;;;;;;;;;;;;;21.10;48.91;95669.25;10442626;28;4416;-64
2023/08/07 11:44:59;;;;;;;;;;;;;;;21.14;48.86;95664.19;10441311;28;2038;-66
2023/08/07 11:49:59;;;;;;;;;;;;;;;21.16;48.56;95667.34;10440259;28;2038;-66
2023/08/07 11:55:02;;;;;;;;;;;;;;;21.19;48.64;95674.66;10442242;28;1850;-67
2023/08/07 12:00:02;;;;;;;;;;;;;;;21.21;48.22;95675.97;10447213;28;2336;-68
2023/08/07 12:05:03;;;;;;;;;;;;;;;21.25;48.36;95674.34;10436707;28;1884;-66
2023/08/07 12:10:06;;;;;;;;;;;;;;;21.26;48.37;95677.78;10448210;28;1998;-65
2023/08/07 12:15:07;;;;;;;;;;;;;;;21.28;47.98;95678.28;10438737;28;1890;-66
2023/08/07 12:20:10;;;;;;;;;;;;;;;21.28;47.88;95681.69;10442866;28;1895;-66
2023/08/07 12:25:11;;;;;;;;;;;;;;;21.30;47.28;95684.06;10438101;28;1826;-65
2023/08/07 12:30:11;;;;;;;;;;;;;;;21.31;47.31;95683.00;10441435;28;1906;-62
2023/08/07 12:35:12;;;;;;;;;;;;;;;21.32;47.69;95685.34;10438734;28;1795;-69
2023/08/07 12:40:12;;;;;;;;;;;;;;;21.33;48.10;95686.91;10433831;28;4411;-65
2023/08/07 12:45:13;;;;;;;;;;;;;;;21.34;47.54;95704.31;10450114;28;2192;-65
2023/08/07 12:50:14;;;;;;;;;;;;;;;21.36;47.16;95704.03;10447319;28;2065;-66
2023/08/07 12:55:14;;;;;;;;;;;;;;;21.35;47.35;95700.59;10438552;28;2202;-65
2023/08/07 13:00:15;;;;;;;;;;;;;;;21.35;47.22;95713.03;10441998;28;1970;-65
2023/08/07 13:05:16;;;;;;;;;;;;;;;21.35;46.89;95710.38;10446446;28;1842;-66
2023/08/07 13:10:17;;;;;;;;;;;;;;;21.35;46.92;95711.16;10474970;28;1977;-63
2023/08/07 13:15:17;;;;;;;;;;;;;;;21.34;46.64;95706.97;10443355;28;1872;-65
2023/08/07 13:20:18;;;;;;;;;;;;;;;21.34;47.04;95712.22;10443262;28;1878;-66
2023/08/07 13:25:18;;;;;;;;;;;;;;;21.35;46.89;95720.94;10442199;28;2151;-64
2023/08/07 13:30:18;;;;;;;;;;;;;;;21.35;46.69;95720.94;10437471;28;1955;-65
2023/08/07 13:35:18;;;;;;;;;;;;;;;21.34;46.79;95738.59;10438478;28;1865;-64
2023/08/07 13:40:19;;;;;;;;;;;;;;;21.33;46.47;95739.66;10438379;28;4526;-64
2023/08/07 13:45:19;;;;;;;;;;;;;;;21.34;46.75;95737.81;10440421;28;2097;-65
2023/08/07 13:50:20;;;;;;;;;;;;;;;21.33;46.88;95744.16;10430942;28;2187;-65
2023/08/07 13:55:20;;;;;;;;;;;;;;;21.33;46.39;95747.56;10452944;28;2427;-66
2023/08/07 14:00:20;;;;;;;;;;;;;;;21.34;47.05;95740.44;10445638;28;1854;-65
2023/08/07 14:05:21;;;;;;;;;;;;;;;21.34;47.01;95748.34;10443516;28;2041;-64
2023/08/07 14:10:21;;;;;;;;;;;;;;;21.35;47.43;95761.25;10442136;28;1902;-65
2023/08/07 14:15:21;;;;;;;;;;;;;;;21.33;47.54;95767.88;10443780;28;1913;-64
2023/08/07 14:20:22;;;;;;;;;;;;;;;21.31;47.43;95777.91;10445293;28;1940;-65
2023/08/07 14:25:22;;;;;;;;;;;;;;;21.28;47.54;95787.16;10445841;28;1890;-64
2023/08/07 14:30:22;;;;;;;;;;;;;;;21.26;47.63;95799.03;10468723;28;1969;-64
2023/08/07 14:35:22;;;;;;;;;;;;;;;21.24;47.65;95809.06;10447178;28;1893;-65
2023/08/07 14:40:23;;;;;;;;;;;;;;;21.21;48.20;95806.97;10452140;28;1958;-65
2023/08/07 14:45:23;;;;;;;;;;;;;;;21.21;48.18;95818.31;10445516;28;2105;-64
2023/08/07 14:50:24;;;;;;;;;;;;;;;21.20;47.96;95831.78;10455022;28;2326;-65
2023/08/07 14:55:24;;;;;;;;;;;;;;;21.19;48.06;95836.25;10446848;28;1630;-65
2023/08/07 15:00:24;;;;;;;;;;;;;;;21.17;48.55;95838.38;10451852;28;1878;-65
2023/08/07 15:05:24;;;;;;;;;;;;;;;21.16;48.69;95846.56;10455461;28;1471;-66
2023/08/07 15:10:25;;;;;;;;;;;;;;;21.16;48.60;95846.56;10453870;28;1969;-66
2023/08/07 15:15:25;;;;;;;;;;;;;;;21.14;48.67;95851.34;10453537;28;1496;-65
2023/08/07 15:20:25;;;;;;;;;;;;;;;21.14;49.17;95848.69;10451896;28;1530;-67
2023/08/07 15:25:26;;;;;;;;;;;;;;;21.14;48.95;95867.16;10450338;28;1528;-66
2023/08/07 15:30:27;;;;;;;;;;;;;;;21.14;49.34;95861.88;10450474;28;1969;-66
2023/08/07 15:35:29;;;;;;;;;;;;;;;21.13;48.61;95863.72;10450200;28;1577;-66
2023/08/07 15:40:29;;;;;;;;;;;;;;;21.13;49.35;95863.72;10450504;28;4577;-66
2023/08/07 15:45:29;;;;;;;;;;;;;;;21.14;49.50;95875.06;10447419;28;2480;-65
2023/08/07 15:50:30;;;;;;;;;;;;;;;21.13;49.20;95874.25;10456086;28;1989;-66
2023/08/07 15:55:33;;;;;;;;;;;;;;;21.13;49.14;95878.75;10464851;28;1707;-67
2023/08/07 16:00:34;;;;;;;;;;;;;;;21.12;49.10;95882.44;10450365;28;1475;-67
2023/08/07 16:05:35;;;;;;;;;;;;;;;21.12;48.93;95885.88;10451574;28;1445;-67
2023/08/07 16:10:35;;;;;;;;;;;;;;;21.11;49.18;95902.75;10460404;28;1984;-67
2023/08/07 16:15:35;;;;;;;;;;;;;;;21.11;49.34;95904.59;10453848;28;1505;-66
2023/08/07 16:20:37;;;;;;;;;;;;;;;21.11;49.12;95905.38;10455691;28;1456;-67
2023/08/07 16:25:37;;;;;;;;;;;;;;;21.10;49.60;95908.28;10449891;28;1889;-67
2023/08/07 16:30:38;;;;;;;;;;;;;;;21.11;49.84;95917.75;10455611;28;1918;-67
2023/08/07 16:35:38;;;;;;;;;;;;;;;21.10;49.81;95911.72;10460164;28;1492;-69
2023/08/07 16:40:38;;;;;;;;;;;;;;;21.10;50.15;95916.19;10469887;28;4498;-69
2023/08/07 16:45:38;;;;;;;;;;;;;;;21.09;49.75;95910.13;10461664;28;1612;-66
2023/08/07 16:50:39;;;;;;;;;;;;;;;21.08;49.72;95923.59;10458738;28;1906;-67
2023/08/07 16:55:39;;;;;;;;;;;;;;;21.07;49.44;95912.25;10459912;28;1648;-66
2023/08/07 17:00:39;;;;;;;;;;;;;;;21.06;49.33;95918.59;10457622;28;1461;-67
2023/08/07 17:05:40;;;;;;;;;;;;;;;21.05;49.61;95915.16;10460175;28;1661;-67
2023/08/07 17:10:40;;;;;;;;;;;;;;;21.05;49.11;95915.16;10450741;28;2026;-66
2023/08/07 17:15:40;;;;;;;;;;;;;;;21.04;49.29;95920.72;10456566;28;1589;-66
2023/08/07 17:20:40;;;;;;;;;;;;;;;21.02;49.40;95920.19;10452543;28;1838;-67
2023/08/07 17:25:41;;;;;;;;;;;;;;;21.02;48.97;95923.59;10452462;28;1525;-67
2023/08/07 17:30:41;;;;;;;;;;;;;;;21.08;49.21;95928.88;10454486;28;1898;-69
2023/08/07 17:35:41;;;;;;;;;;;;;;;21.11;49.04;95929.09;10486580;28;1819;-68
2023/08/07 17:40:41;;;;;;;;;;;;;;;21.13;49.62;95923.56;10455493;28;2322;-68
2023/08/07 17:45:42;;;;;;;;;;;;;;;21.17;49.37;95919.31;10462163;28;1735;-65
2023/08/07 17:50:42;;;;;;;;;;;;;;;21.18;48.78;95918.25;10461811;28;1906;-65
2023/08/07 17:55:43;;;;;;;;;;;;;;;21.19;48.40;95914.56;10450569;28;1772;-65
2023/08/07 18:00:43;;;;;;;;;;;;;;;21.21;48.43;95922.97;10451476;28;1472;-65
2023/08/07 18:05:44;;;;;;;;;;;;;;;21.23;48.78;95916.38;10457937;28;1435;-67
2023/08/07 18:10:45;;;;;;;;;;;;;;;21.28;49.11;95910.28;10442617;28;1977;-69
2023/08/07 18:15:45;;;;;;;;;;;;;;;21.31;48.86;95917.66;10459128;28;1760;-69
2023/08/07 18:20:45;;;;;;;;;;;;;;;21.32;48.45;95924.50;10453647;28;1783;-68
2023/08/07 18:25:45;;;;;;;;;;;;;;;21.32;48.47;95924.50;10455914;28;1713;-68
2023/08/07 18:30:46;;;;;;;;;;;;;;;21.31;48.49;95920.31;10445589;28;1898;-67
2023/08/07 18:35:46;;;;;;;;;;;;;;;21.32;48.20;95927.13;10481104;28;2280;-68
2023/08/07 18:40:46;;;;;;;;;;;;;;;21.32;48.16;95935.03;10459642;28;4729;-69
2023/08/07 18:45:46;;;;;;;;;;;;;;;21.32;48.70;95929.78;10457651;28;1479;-68
2023/08/07 18:50:47;;;;;;;;;;;;;;;21.34;48.90;95938.19;10446406;28;1985;-68
2023/08/07 18:55:47;;;;;;;;;;;;;;;21.32;48.29;95942.94;10455718;28;1620;-69
2023/08/07 19:00:47;;;;;;;;;;;;;;;21.30;48.40;95943.22;10456432;28;1535;-68
2023/08/07 19:05:48;;;;;;;;;;;;;;;21.27;48.44;95958.81;10452774;28;1436;-68
2023/08/07 19:10:48;;;;;;;;;;;;;;;21.26;49.08;95959.88;10455431;28;1906;-70
2023/08/07 19:15:48;;;;;;;;;;;;;;;21.24;49.02;95965.41;10453419;28;1442;-68
2023/08/07 19:20:49;;;;;;;;;;;;;;;21.24;48.83;95969.91;10447844;28;1553;-69
2023/08/07 19:25:49;;;;;;;;;;;;;;;21.21;48.94;95963.31;10447677;28;1582;-68
2023/08/07 19:30:50;;;;;;;;;;;;;;;21.21;49.55;95965.16;10456662;28;1973;-69
2023/08/07 19:35:50;;;;;;;;;;;;;;;21.23;48.92;95970.94;10458151;28;1474;-67
2023/08/07 19:40:51;;;;;;;;;;;;;;;21.21;48.80;95978.34;10452038;28;1436;-68
2023/08/07 19:45:52;;;;;;;;;;;;;;;21.21;48.69;95970.44;10452372;28;1424;-67
2023/08/07 19:50:55;;;;;;;;;;;;;;;21.19;48.57;95977.81;10453625;28;1965;-70
2023/08/07 19:55:56;;;;;;;;;;;;;;;21.18;48.58;95977.06;10458700;28;1667;-68
2023/08/07 20:00:56;;;;;;;;;;;;;;;21.16;48.56;95981.81;10463117;28;1506;-68
2023/08/07 20:05:57;;;;;;;;;;;;;;;21.18;48.80;95986.81;10454475;28;1480;-67
2023/08/07 20:10:58;;;;;;;;;;;;;;;21.16;49.15;95984.44;10464522;28;1980;-72
2023/08/07 20:16:00;;;;;;;;;;;;;;;21.15;48.93;95988.13;10435532;28;1581;-69
2023/08/07 20:21:00;;;;;;;;;;;;;;;21.15;49.20;95993.41;10462348;28;1478;-70
2023/08/07 20:26:00;;;;;;;;;;;;;;;21.16;48.80;95983.66;10449767;28;2294;-70
2023/08/07 20:31:01;;;;;;;;;;;;;;;21.15;49.22;95987.34;10451773;28;1971;-69
2023/08/07 20:36:01;;;;;;;;;;;;;;;21.14;48.39;95985.78;10451658;28;1463;-70
2023/08/07 20:41:01;;;;;;;;;;;;;;;21.15;48.89;95984.69;10454106;28;4438;-70
2023/08/07 20:46:02;;;;;;;;;;;;;;;21.13;49.03;95977.06;10447081;28;1512;-70
2023/08/07 20:51:02;;;;;;;;;;;;;;;21.15;48.37;95979.41;10450660;28;1973;-70
2023/08/07 20:56:02;;;;;;;;;;;;;;;21.11;48.74;95973.13;10443502;28;1815;-70
2023/08/07 21:01:03;;;;;;;;;;;;;;;21.11;48.42;95986.28;10447021;28;1944;-64
2023/08/07 21:06:03;;;;;;;;;;;;;;;21.08;48.45;95984.22;10457829;28;1970;-69
2023/08/07 21:11:03;;;;;;;;;;;;;;;21.04;48.51;95974.19;10455410;28;2021;-68
2023/08/07 21:16:04;;;;;;;;;;;;;;;21.02;48.48;95973.69;10449973;28;2085;-68
2023/08/07 21:21:04;;;;;;;;;;;;;;;20.99;48.43;95961.03;10451779;28;1962;-67
2023/08/07 21:26:05;;;;;;;;;;;;;;;20.98;48.82;95967.34;10447236;28;2266;-69
2023/08/07 21:31:06;;;;;;;;;;;;;;;20.95;48.52;95957.38;10456433;28;2025;-68
2023/08/07 21:36:06;;;;;;;;;;;;;;;20.94;48.81;95950.50;10451886;28;1849;-69
2023/08/07 21:41:06;;;;;;;;;;;;;;;20.92;48.61;95952.63;10449311;28;4454;-67
2023/08/07 21:46:06;;;;;;;;;;;;;;;20.91;48.67;95945.78;10452945;28;1873;-68
2023/08/07 21:51:07;;;;;;;;;;;;;;;20.90;48.84;95951.31;10451079;28;1989;-67
2023/08/07 21:56:07;;;;;;;;;;;;;;;20.88;48.99;95956.84;10450840;28;2089;-68
2023/08/07 22:01:07;;;;;;;;;;;;;;;20.88;48.95;95953.44;10478460;28;1889;-68
2023/08/07 22:06:07;;;;;;;;;;;;;;;20.86;48.81;95947.63;10448631;28;1877;-69
2023/08/07 22:11:08;;;;;;;;;;;;;;;20.86;48.70;95948.44;10455589;28;1967;-67
2023/08/07 22:16:08;;;;;;;;;;;;;;;20.84;48.65;95945.28;10456347;28;2067;-67
2023/08/07 22:21:08;;;;;;;;;;;;;;;20.84;48.73;95942.66;10445915;28;2273;-67
2023/08/07 22:26:08;;;;;;;;;;;;;;;20.82;48.26;95942.13;10450829;28;2190;-66
2023/08/07 22:31:09;;;;;;;;;;;;;;;20.82;48.69;95939.50;10455291;28;1902;-66
2023/08/07 22:36:11;;;;;;;;;;;;;;;20.81;48.54;95937.91;10448760;28;1889;-66
2023/08/07 22:41:11;;;;;;;;;;;;;;;20.81;48.45;95931.88;10445305;28;4588;-67
2023/08/07 22:46:11;;;;;;;;;;;;;;;20.80;48.45;95928.44;10448829;28;1958;-66
2023/08/07 22:51:12;;;;;;;;;;;;;;;20.78;48.64;95927.91;10442572;28;1961;-66
2023/08/07 22:56:12;;;;;;;;;;;;;;;20.78;48.47;95930.56;10454502;28;1974;-66
2023/08/07 23:01:12;;;;;;;;;;;;;;;20.78;48.26;95927.91;10451360;28;1889;-68
2023/08/07 23:06:12;;;;;;;;;;;;;;;20.77;48.49;95928.19;10444535;28;2061;-69
2023/08/07 23:11:13;;;;;;;;;;;;;;;20.77;48.34;95923.69;10450920;28;2002;-67
2023/08/07 23:16:13;;;;;;;;;;;;;;;20.77;48.51;95930.84;10445954;28;2382;-67
2023/08/07 23:21:13;;;;;;;;;;;;;;;20.74;48.36;95918.19;10442180;28;1901;-67
2023/08/07 23:26:13;;;;;;;;;;;;;;;20.75;48.16;95919.78;10453993;28;1873;-66
2023/08/07 23:31:15;;;;;;;;;;;;;;;20.73;48.45;95917.38;10453115;28;1977;-67
2023/08/07 23:36:15;;;;;;;;;;;;;;;20.73;48.22;95914.75;10442695;28;2013;-67
2023/08/07 23:41:16;;;;;;;;;;;;;;;20.73;48.02;95906.09;10447992;28;4505;-67
2023/08/07 23:46:16;;;;;;;;;;;;;;;20.72;47.89;95907.94;10447944;28;2204;-67
2023/08/07 23:51:16;;;;;;;;;;;;;;;20.71;48.15;95903.69;10445092;28;1982;-68
2023/08/07 23:56:17;;;;;;;;;;;;;;;20.70;48.34;95904.78;10447291;28;1894;-67
